sensor_id;sensor_type;location;lat;lon;timestamp;pressure;altitude;pressure_sealevel;temperature;humidity
53300;BME280;39187;48.476;8.310;2023-06-10T00:00:25;91050.16;;;16.20;67.33
53300;BME280;39187;48.476;8.310;2023-06-10T00:02:51;91049.28;;;16.23;67.26
53300;BME280;39187;48.476;8.310;2023-06-10T00:05:16;91047.16;;;16.27;66.76
53300;BME280;39187;48.476;8.310;2023-06-10T00:07:46;91049.44;;;16.11;66.95
53300;BME280;39187;48.476;8.310;2023-06-10T00:10:11;91053.50;;;16.06;66.98
53300;BME280;39187;48.476;8.310;2023-06-10T00:12:37;91056.75;;;16.01;67.11
53300;BME280;39187;48.476;8.310;2023-06-10T00:15:05;91050.91;;;16.21;66.02
53300;BME280;39187;48.476;8.310;2023-06-10T00:17:31;91051.63;;;16.30;65.09
53300;BME280;39187;48.476;8.310;2023-06-10T00:19:58;91061.50;;;16.24;65.34
53300;BME280;39187;48.476;8.310;2023-06-10T00:22:23;91054.81;;;16.11;66.00
53300;BME280;39187;48.476;8.310;2023-06-10T00:24:49;91060.38;;;15.98;66.39
53300;BME280;39187;48.476;8.310;2023-06-10T00:27:16;91061.41;;;15.91;67.21
53300;BME280;39187;48.476;8.310;2023-06-10T00:29:41;91059.91;;;15.99;66.68
53300;BME280;39187;48.476;8.310;2023-06-10T00:32:07;91050.69;;;15.82;67.32
53300;BME280;39187;48.476;8.310;2023-06-10T00:34:33;91051.72;;;15.85;68.15
53300;BME280;39187;48.476;8.310;2023-06-10T00:36:58;91039.38;;;15.87;67.45
53300;BME280;39187;48.476;8.310;2023-06-10T00:39:24;91043.41;;;15.74;68.07
53300;BME280;39187;48.476;8.310;2023-06-10T00:41:49;91044.41;;;15.94;67.27
53300;BME280;39187;48.476;8.310;2023-06-10T00:44:15;91040.66;;;16.01;66.79
53300;BME280;39187;48.476;8.310;2023-06-10T00:46:41;91034.72;;;15.97;67.28
53300;BME280;39187;48.476;8.310;2023-06-10T00:49:07;91044.41;;;15.94;66.97
53300;BME280;39187;48.476;8.310;2023-06-10T00:51:33;91041.75;;;15.85;67.46
53300;BME280;39187;48.476;8.310;2023-06-10T00:54:00;91033.53;;;15.98;67.35
53300;BME280;39187;48.476;8.310;2023-06-10T00:56:26;91032.63;;;15.92;67.71
53300;BME280;39187;48.476;8.310;2023-06-10T00:58:52;91037.84;;;16.04;67.31
53300;BME280;39187;48.476;8.310;2023-06-10T01:01:18;91043.50;;;15.97;67.43
53300;BME280;39187;48.476;8.310;2023-06-10T01:03:45;91036.66;;;15.96;68.17
53300;BME280;39187;48.476;8.310;2023-06-10T01:06:16;91034.53;;;16.19;67.19
53300;BME280;39187;48.476;8.310;2023-06-10T01:11:47;91023.34;;;16.11;67.21
53300;BME280;39187;48.476;8.310;2023-06-10T01:14:16;91033.25;;;15.87;68.18
53300;BME280;39187;48.476;8.310;2023-06-10T01:16:42;91027.44;;;15.70;69.23
53300;BME280;39187;48.476;8.310;2023-06-10T01:19:11;91031.31;;;15.78;69.17
53300;BME280;39187;48.476;8.310;2023-06-10T01:21:38;91029.25;;;15.64;70.41
53300;BME280;39187;48.476;8.310;2023-06-10T01:24:05;91028.63;;;15.78;70.01
53300;BME280;39187;48.476;8.310;2023-06-10T01:26:34;91029.25;;;15.73;69.74
53300;BME280;39187;48.476;8.310;2023-06-10T01:29:41;91030.22;;;16.03;68.85
53300;BME280;39187;48.476;8.310;2023-06-10T01:32:18;91027.13;;;15.77;70.12
53300;BME280;39187;48.476;8.310;2023-06-10T01:34:47;91026.38;;;15.77;70.42
53300;BME280;39187;48.476;8.310;2023-06-10T01:37:17;91035.03;;;15.90;69.85
53300;BME280;39187;48.476;8.310;2023-06-10T01:39:45;91030.00;;;15.55;71.56
53300;BME280;39187;48.476;8.310;2023-06-10T01:42:12;91031.16;;;15.82;70.76
53300;BME280;39187;48.476;8.310;2023-06-10T01:44:41;91038.47;;;15.72;71.39
53300;BME280;39187;48.476;8.310;2023-06-10T01:47:08;91043.84;;;15.63;71.49
53300;BME280;39187;48.476;8.310;2023-06-10T01:49:34;91040.84;;;15.70;71.57
53300;BME280;39187;48.476;8.310;2023-06-10T01:52:00;91038.31;;;15.85;70.57
53300;BME280;39187;48.476;8.310;2023-06-10T01:54:25;91043.69;;;15.85;70.79
53300;BME280;39187;48.476;8.310;2023-06-10T01:56:51;91037.88;;;15.86;70.88
53300;BME280;39187;48.476;8.310;2023-06-10T01:59:17;91045.34;;;15.73;71.02
53300;BME280;39187;48.476;8.310;2023-06-10T02:01:42;91034.41;;;16.04;69.90
53300;BME280;39187;48.476;8.310;2023-06-10T02:04:08;91032.50;;;15.77;71.07
53300;BME280;39187;48.476;8.310;2023-06-10T02:06:33;91039.19;;;15.91;71.13
53300;BME280;39187;48.476;8.310;2023-06-10T02:09:01;91040.41;;;15.81;72.27
53300;BME280;39187;48.476;8.310;2023-06-10T02:11:26;91045.00;;;15.98;71.54
53300;BME280;39187;48.476;8.310;2023-06-10T02:13:52;91039.38;;;15.87;72.05
53300;BME280;39187;48.476;8.310;2023-06-10T02:16:17;91038.78;;;15.74;72.57
53300;BME280;39187;48.476;8.310;2023-06-10T02:18:44;91043.53;;;15.79;72.14
53300;BME280;39187;48.476;8.310;2023-06-10T02:21:09;91041.75;;;15.85;72.59
53300;BME280;39187;48.476;8.310;2023-06-10T02:23:35;91048.28;;;16.02;71.31
53300;BME280;39187;48.476;8.310;2023-06-10T02:26:01;91048.88;;;15.97;71.07
53300;BME280;39187;48.476;8.310;2023-06-10T02:28:27;91047.38;;;16.06;70.54
53300;BME280;39187;48.476;8.310;2023-06-10T02:30:53;91044.25;;;15.98;71.03
53300;BME280;39187;48.476;8.310;2023-06-10T02:33:18;91051.16;;;15.81;72.12
53300;BME280;39187;48.476;8.310;2023-06-10T02:35:45;91046.09;;;15.74;72.77
53300;BME280;39187;48.476;8.310;2023-06-10T02:38:10;91045.16;;;15.95;71.83
53300;BME280;39187;48.476;8.310;2023-06-10T02:40:36;91047.28;;;15.73;72.15
53300;BME280;39187;48.476;8.310;2023-06-10T02:43:01;91041.91;;;15.73;72.49
53300;BME280;39187;48.476;8.310;2023-06-10T02:45:27;91045.31;;;15.91;71.74
53300;BME280;39187;48.476;8.310;2023-06-10T02:47:52;91047.25;;;15.82;72.53
53300;BME280;39187;48.476;8.310;2023-06-10T02:50:18;91049.69;;;15.61;72.49
53300;BME280;39187;48.476;8.310;2023-06-10T02:52:44;91055.00;;;15.43;73.59
53300;BME280;39187;48.476;8.310;2023-06-10T02:55:09;91053.06;;;15.35;74.61
53300;BME280;39187;48.476;8.310;2023-06-10T02:57:35;91046.81;;;15.29;74.47
53300;BME280;39187;48.476;8.310;2023-06-10T03:00:01;91052.03;;;15.23;74.23
53300;BME280;39187;48.476;8.310;2023-06-10T03:02:27;91048.75;;;15.28;73.62
53300;BME280;39187;48.476;8.310;2023-06-10T03:04:56;91041.16;;;15.36;73.24
53300;BME280;39187;48.476;8.310;2023-06-10T03:07:22;91045.63;;;15.30;73.67
53300;BME280;39187;48.476;8.310;2023-06-10T03:09:48;91052.16;;;15.19;75.91
53300;BME280;39187;48.476;8.310;2023-06-10T03:12:14;91053.22;;;15.22;75.01
53300;BME280;39187;48.476;8.310;2023-06-10T03:14:41;91047.81;;;15.13;76.63
53300;BME280;39187;48.476;8.310;2023-06-10T03:17:06;91048.59;;;15.32;74.86
53300;BME280;39187;48.476;8.310;2023-06-10T03:19:34;91046.50;;;15.36;74.25
53300;BME280;39187;48.476;8.310;2023-06-10T03:22:10;91047.84;;;15.31;73.82
53300;BME280;39187;48.476;8.310;2023-06-10T03:24:37;91051.56;;;15.24;74.50
53300;BME280;39187;48.476;8.310;2023-06-10T03:27:09;91058.28;;;15.29;74.80
53300;BME280;39187;48.476;8.310;2023-06-10T03:29:36;91048.25;;;15.11;76.20
53300;BME280;39187;48.476;8.310;2023-06-10T03:32:03;91053.34;;;15.18;76.22
53300;BME280;39187;48.476;8.310;2023-06-10T03:34:28;91050.94;;;15.02;77.14
53300;BME280;39187;48.476;8.310;2023-06-10T03:37:00;91057.03;;;14.94;78.32
53300;BME280;39187;48.476;8.310;2023-06-10T03:39:26;91055.41;;;15.05;77.71
53300;BME280;39187;48.476;8.310;2023-06-10T03:41:54;91055.84;;;14.95;78.44
53300;BME280;39187;48.476;8.310;2023-06-10T03:44:21;91053.75;;;14.99;78.45
53300;BME280;39187;48.476;8.310;2023-06-10T03:46:46;91057.34;;;14.96;78.39
53300;BME280;39187;48.476;8.310;2023-06-10T03:49:12;91059.56;;;14.97;78.30
53300;BME280;39187;48.476;8.310;2023-06-10T03:51:40;91059.09;;;14.99;77.98
53300;BME280;39187;48.476;8.310;2023-06-10T03:54:05;91067.16;;;14.99;78.21
53300;BME280;39187;48.476;8.310;2023-06-10T03:56:31;91067.91;;;14.99;78.95
53300;BME280;39187;48.476;8.310;2023-06-10T03:58:57;91068.28;;;15.47;76.21
53300;BME280;39187;48.476;8.310;2023-06-10T04:01:23;91068.75;;;15.73;75.09
53300;BME280;39187;48.476;8.310;2023-06-10T04:03:49;91069.59;;;15.88;73.64
53300;BME280;39187;48.476;8.310;2023-06-10T04:06:16;91074.94;;;16.15;72.39
53300;BME280;39187;48.476;8.310;2023-06-10T04:08:42;91070.00;;;16.23;71.98
53300;BME280;39187;48.476;8.310;2023-06-10T04:11:08;91070.56;;;16.36;71.20
53300;BME280;39187;48.476;8.310;2023-06-10T04:13:34;91072.78;;;16.47;70.56
53300;BME280;39187;48.476;8.310;2023-06-10T04:15:59;91074.22;;;16.66;69.28
53300;BME280;39187;48.476;8.310;2023-06-10T04:18:25;91071.88;;;16.50;69.86
53300;BME280;39187;48.476;8.310;2023-06-10T04:20:51;91073.69;;;16.86;68.45
53300;BME280;39187;48.476;8.310;2023-06-10T04:23:16;91070.66;;;17.02;68.01
53300;BME280;39187;48.476;8.310;2023-06-10T04:25:42;91070.75;;;16.74;69.86
53300;BME280;39187;48.476;8.310;2023-06-10T04:28:08;91076.03;;;16.60;70.17
53300;BME280;39187;48.476;8.310;2023-06-10T04:30:34;91072.47;;;16.96;69.00
53300;BME280;39187;48.476;8.310;2023-06-10T04:32:59;91083.41;;;17.16;68.22
53300;BME280;39187;48.476;8.310;2023-06-10T04:35:25;91078.13;;;16.98;69.48
53300;BME280;39187;48.476;8.310;2023-06-10T04:37:53;91081.47;;;16.83;71.07
53300;BME280;39187;48.476;8.310;2023-06-10T04:40:19;91086.44;;;16.76;72.22
53300;BME280;39187;48.476;8.310;2023-06-10T04:42:44;91083.44;;;16.83;72.78
53300;BME280;39187;48.476;8.310;2023-06-10T04:45:11;91081.09;;;18.10;66.91
53300;BME280;39187;48.476;8.310;2023-06-10T04:47:36;91086.19;;;18.08;66.22
53300;BME280;39187;48.476;8.310;2023-06-10T04:50:02;91075.13;;;18.06;65.29
53300;BME280;39187;48.476;8.310;2023-06-10T04:52:28;91077.63;;;18.62;63.34
53300;BME280;39187;48.476;8.310;2023-06-10T04:54:54;91073.88;;;18.74;63.05
53300;BME280;39187;48.476;8.310;2023-06-10T04:57:20;91083.06;;;18.82;62.32
53300;BME280;39187;48.476;8.310;2023-06-10T04:59:46;91073.44;;;18.96;62.24
53300;BME280;39187;48.476;8.310;2023-06-10T05:02:12;91087.97;;;18.84;62.07
53300;BME280;39187;48.476;8.310;2023-06-10T05:04:37;91076.84;;;19.26;60.24
53300;BME280;39187;48.476;8.310;2023-06-10T05:07:03;91085.13;;;18.88;60.57
53300;BME280;39187;48.476;8.310;2023-06-10T05:09:29;91078.69;;;19.55;58.91
53300;BME280;39187;48.476;8.310;2023-06-10T05:11:55;91086.94;;;19.31;58.94
53300;BME280;39187;48.476;8.310;2023-06-10T05:14:21;91087.59;;;20.01;57.25
53300;BME280;39187;48.476;8.310;2023-06-10T05:16:47;91089.50;;;20.21;55.54
53300;BME280;39187;48.476;8.310;2023-06-10T05:19:13;91088.28;;;19.76;57.32
53300;BME280;39187;48.476;8.310;2023-06-10T05:21:39;91093.13;;;20.64;54.74
53300;BME280;39187;48.476;8.310;2023-06-10T05:24:04;91094.91;;;20.99;53.20
53300;BME280;39187;48.476;8.310;2023-06-10T05:26:30;91089.72;;;20.69;52.57
53300;BME280;39187;48.476;8.310;2023-06-10T05:28:57;91098.59;;;20.44;54.42
53300;BME280;39187;48.476;8.310;2023-06-10T05:31:23;91094.78;;;19.84;56.39
53300;BME280;39187;48.476;8.310;2023-06-10T05:33:49;91100.66;;;18.63;59.96
53300;BME280;39187;48.476;8.310;2023-06-10T05:36:14;91104.16;;;18.84;59.82
53300;BME280;39187;48.476;8.310;2023-06-10T05:38:40;91100.09;;;18.59;60.91
53300;BME280;39187;48.476;8.310;2023-06-10T05:41:06;91099.13;;;18.92;60.84
53300;BME280;39187;48.476;8.310;2023-06-10T05:43:31;91099.16;;;19.82;57.20
53300;BME280;39187;48.476;8.310;2023-06-10T05:45:57;91097.88;;;19.77;57.62
53300;BME280;39187;48.476;8.310;2023-06-10T05:48:22;91099.97;;;18.98;59.67
53300;BME280;39187;48.476;8.310;2023-06-10T05:50:48;91091.44;;;19.54;58.20
53300;BME280;39187;48.476;8.310;2023-06-10T05:53:14;91091.94;;;19.03;59.25
53300;BME280;39187;48.476;8.310;2023-06-10T05:55:42;91094.22;;;20.26;56.15
53300;BME280;39187;48.476;8.310;2023-06-10T05:58:08;91098.88;;;20.72;54.83
53300;BME280;39187;48.476;8.310;2023-06-10T06:00:34;91100.72;;;21.17;52.93
53300;BME280;39187;48.476;8.310;2023-06-10T06:02:59;91101.47;;;21.18;52.60
53300;BME280;39187;48.476;8.310;2023-06-10T06:05:25;91099.03;;;20.94;53.47
53300;BME280;39187;48.476;8.310;2023-06-10T06:07:51;91099.50;;;21.18;52.87
53300;BME280;39187;48.476;8.310;2023-06-10T06:10:17;91099.44;;;21.50;51.50
53300;BME280;39187;48.476;8.310;2023-06-10T06:12:43;91105.69;;;21.67;51.77
53300;BME280;39187;48.476;8.310;2023-06-10T06:15:10;91096.09;;;21.77;51.53
53300;BME280;39187;48.476;8.310;2023-06-10T06:17:36;91095.19;;;23.17;48.31
53300;BME280;39187;48.476;8.310;2023-06-10T06:20:03;91102.47;;;21.26;51.13
53300;BME280;39187;48.476;8.310;2023-06-10T06:22:28;91100.81;;;21.03;52.62
53300;BME280;39187;48.476;8.310;2023-06-10T06:24:54;91100.06;;;21.76;50.39
53300;BME280;39187;48.476;8.310;2023-06-10T06:27:20;91095.50;;;21.99;49.84
53300;BME280;39187;48.476;8.310;2023-06-10T06:29:46;91103.84;;;21.10;52.70
53300;BME280;39187;48.476;8.310;2023-06-10T06:32:12;91102.31;;;21.04;52.23
53300;BME280;39187;48.476;8.310;2023-06-10T06:34:37;91112.84;;;20.70;54.42
53300;BME280;39187;48.476;8.310;2023-06-10T06:37:03;91110.88;;;19.99;56.82
53300;BME280;39187;48.476;8.310;2023-06-10T06:39:32;91113.59;;;19.99;56.48
53300;BME280;39187;48.476;8.310;2023-06-10T06:41:58;91119.19;;;19.75;57.94
53300;BME280;39187;48.476;8.310;2023-06-10T06:44:23;91121.63;;;20.60;55.84
53300;BME280;39187;48.476;8.310;2023-06-10T06:46:49;91115.03;;;20.92;54.57
53300;BME280;39187;48.476;8.310;2023-06-10T06:49:14;91116.16;;;21.48;53.61
53300;BME280;39187;48.476;8.310;2023-06-10T06:51:40;91116.78;;;20.69;54.75
53300;BME280;39187;48.476;8.310;2023-06-10T06:54:05;91121.63;;;20.34;56.21
53300;BME280;39187;48.476;8.310;2023-06-10T06:56:31;91117.03;;;20.97;55.48
53300;BME280;39187;48.476;8.310;2023-06-10T06:58:56;91125.00;;;20.09;58.33
53300;BME280;39187;48.476;8.310;2023-06-10T07:01:22;91132.44;;;20.34;57.41
53300;BME280;39187;48.476;8.310;2023-06-10T07:03:48;91126.69;;;20.78;54.17
53300;BME280;39187;48.476;8.310;2023-06-10T07:06:13;91120.81;;;21.11;54.46
53300;BME280;39187;48.476;8.310;2023-06-10T07:08:39;91114.22;;;20.86;54.64
53300;BME280;39187;48.476;8.310;2023-06-10T07:11:04;91134.19;;;20.94;55.31
53300;BME280;39187;48.476;8.310;2023-06-10T07:13:30;91131.09;;;21.07;54.39
53300;BME280;39187;48.476;8.310;2023-06-10T07:15:55;91126.59;;;20.93;52.50
53300;BME280;39187;48.476;8.310;2023-06-10T07:18:21;91125.06;;;21.54;51.62
53300;BME280;39187;48.476;8.310;2023-06-10T07:20:46;91122.47;;;21.77;51.57
53300;BME280;39187;48.476;8.310;2023-06-10T07:23:12;91116.78;;;22.28;48.61
53300;BME280;39187;48.476;8.310;2023-06-10T07:25:38;91116.59;;;22.49;48.65
53300;BME280;39187;48.476;8.310;2023-06-10T07:28:03;91129.97;;;22.74;46.59
53300;BME280;39187;48.476;8.310;2023-06-10T07:30:29;91131.91;;;22.63;46.52
53300;BME280;39187;48.476;8.310;2023-06-10T07:32:54;91135.53;;;22.26;45.99
53300;BME280;39187;48.476;8.310;2023-06-10T07:35:21;91125.19;;;22.36;46.78
53300;BME280;39187;48.476;8.310;2023-06-10T07:37:46;91129.66;;;22.45;46.47
53300;BME280;39187;48.476;8.310;2023-06-10T07:40:12;91146.06;;;22.13;46.73
53300;BME280;39187;48.476;8.310;2023-06-10T07:42:37;91145.03;;;21.57;48.42
53300;BME280;39187;48.476;8.310;2023-06-10T07:45:03;91135.47;;;22.15;47.52
53300;BME280;39187;48.476;8.310;2023-06-10T07:47:30;91139.38;;;22.09;49.38
53300;BME280;39187;48.476;8.310;2023-06-10T07:49:55;91139.59;;;21.99;48.37
53300;BME280;39187;48.476;8.310;2023-06-10T07:52:21;91128.81;;;21.63;50.21
53300;BME280;39187;48.476;8.310;2023-06-10T07:54:46;91126.91;;;21.74;50.33
53300;BME280;39187;48.476;8.310;2023-06-10T07:57:12;91146.84;;;21.34;51.91
53300;BME280;39187;48.476;8.310;2023-06-10T07:59:38;91145.56;;;21.67;51.41
53300;BME280;39187;48.476;8.310;2023-06-10T08:02:04;91141.84;;;22.01;50.55
53300;BME280;39187;48.476;8.310;2023-06-10T08:04:29;91143.22;;;21.91;50.60
53300;BME280;39187;48.476;8.310;2023-06-10T08:06:56;91151.16;;;21.57;52.03
53300;BME280;39187;48.476;8.310;2023-06-10T08:09:22;91152.84;;;21.92;50.84
53300;BME280;39187;48.476;8.310;2023-06-10T08:11:48;91149.75;;;22.10;51.01
53300;BME280;39187;48.476;8.310;2023-06-10T08:14:15;91158.72;;;22.33;50.24
53300;BME280;39187;48.476;8.310;2023-06-10T08:16:41;91152.97;;;22.14;50.12
53300;BME280;39187;48.476;8.310;2023-06-10T08:19:06;91140.88;;;22.15;51.08
53300;BME280;39187;48.476;8.310;2023-06-10T08:21:34;91151.84;;;22.49;50.17
53300;BME280;39187;48.476;8.310;2023-06-10T08:24:03;91140.25;;;22.48;51.04
53300;BME280;39187;48.476;8.310;2023-06-10T08:26:28;91153.13;;;22.59;49.50
53300;BME280;39187;48.476;8.310;2023-06-10T08:28:54;91150.88;;;21.92;49.89
53300;BME280;39187;48.476;8.310;2023-06-10T08:31:21;91166.28;;;21.07;53.33
53300;BME280;39187;48.476;8.310;2023-06-10T08:33:47;91161.88;;;21.78;51.93
53300;BME280;39187;48.476;8.310;2023-06-10T08:36:12;91142.16;;;22.25;50.90
53300;BME280;39187;48.476;8.310;2023-06-10T08:38:38;91140.53;;;22.67;49.04
53300;BME280;39187;48.476;8.310;2023-06-10T08:41:05;91140.63;;;23.23;48.75
53300;BME280;39187;48.476;8.310;2023-06-10T08:43:54;91144.56;;;23.16;47.89
53300;BME280;39187;48.476;8.310;2023-06-10T08:46:22;91137.16;;;23.33;47.65
53300;BME280;39187;48.476;8.310;2023-06-10T08:48:48;91135.66;;;22.99;48.08
53300;BME280;39187;48.476;8.310;2023-06-10T08:51:18;91144.88;;;21.77;49.45
53300;BME280;39187;48.476;8.310;2023-06-10T08:53:52;91147.34;;;21.75;52.48
53300;BME280;39187;48.476;8.310;2023-06-10T08:56:19;91145.66;;;21.09;52.91
53300;BME280;39187;48.476;8.310;2023-06-10T08:58:47;91143.28;;;22.02;50.60
53300;BME280;39187;48.476;8.310;2023-06-10T09:01:13;91141.00;;;22.60;49.33
53300;BME280;39187;48.476;8.310;2023-06-10T09:03:39;91144.56;;;22.07;48.57
53300;BME280;39187;48.476;8.310;2023-06-10T09:06:05;91137.09;;;21.96;48.43
53300;BME280;39187;48.476;8.310;2023-06-10T09:08:33;91142.09;;;21.24;50.52
53300;BME280;39187;48.476;8.310;2023-06-10T09:10:58;91155.78;;;21.46;48.99
53300;BME280;39187;48.476;8.310;2023-06-10T09:13:24;91136.72;;;21.72;47.82
53300;BME280;39187;48.476;8.310;2023-06-10T09:15:50;91143.34;;;21.65;47.91
53300;BME280;39187;48.476;8.310;2023-06-10T09:18:16;91142.13;;;22.14;48.80
53300;BME280;39187;48.476;8.310;2023-06-10T09:20:43;91134.88;;;21.94;47.63
53300;BME280;39187;48.476;8.310;2023-06-10T09:23:09;91155.94;;;21.74;48.96
53300;BME280;39187;48.476;8.310;2023-06-10T09:25:36;91146.56;;;22.12;48.16
53300;BME280;39187;48.476;8.310;2023-06-10T09:28:03;91147.41;;;21.92;47.43
53300;BME280;39187;48.476;8.310;2023-06-10T09:30:33;91139.16;;;22.12;48.20
53300;BME280;39187;48.476;8.310;2023-06-10T09:33:09;91152.13;;;21.49;47.78
53300;BME280;39187;48.476;8.310;2023-06-10T09:35:35;91136.44;;;21.64;48.78
53300;BME280;39187;48.476;8.310;2023-06-10T09:38:01;91131.75;;;22.07;47.90
53300;BME280;39187;48.476;8.310;2023-06-10T09:40:28;91138.88;;;21.99;47.52
53300;BME280;39187;48.476;8.310;2023-06-10T09:42:58;91126.97;;;22.56;47.45
53300;BME280;39187;48.476;8.310;2023-06-10T09:45:30;91154.31;;;21.93;47.09
53300;BME280;39187;48.476;8.310;2023-06-10T09:47:56;91157.47;;;21.80;47.21
53300;BME280;39187;48.476;8.310;2023-06-10T09:50:22;91161.28;;;21.26;48.86
53300;BME280;39187;48.476;8.310;2023-06-10T09:52:48;91145.47;;;21.50;49.01
53300;BME280;39187;48.476;8.310;2023-06-10T09:55:14;91158.25;;;21.44;48.72
53300;BME280;39187;48.476;8.310;2023-06-10T09:57:40;91145.13;;;21.79;47.51
53300;BME280;39187;48.476;8.310;2023-06-10T10:00:09;91151.41;;;21.54;48.65
53300;BME280;39187;48.476;8.310;2023-06-10T10:02:49;91136.84;;;21.94;46.12
53300;BME280;39187;48.476;8.310;2023-06-10T10:05:16;91140.22;;;21.35;48.87
53300;BME280;39187;48.476;8.310;2023-06-10T10:07:43;91152.41;;;21.99;48.83
53300;BME280;39187;48.476;8.310;2023-06-10T10:10:10;91140.09;;;22.04;49.00
53300;BME280;39187;48.476;8.310;2023-06-10T10:12:38;91151.81;;;22.37;48.09
53300;BME280;39187;48.476;8.310;2023-06-10T10:15:08;91135.28;;;21.76;47.96
53300;BME280;39187;48.476;8.310;2023-06-10T10:17:38;91129.03;;;22.02;48.21
53300;BME280;39187;48.476;8.310;2023-06-10T10:20:06;91142.13;;;22.14;47.59
53300;BME280;39187;48.476;8.310;2023-06-10T10:22:39;91144.22;;;21.93;48.21
53300;BME280;39187;48.476;8.310;2023-06-10T10:25:10;91148.47;;;22.00;47.77
53300;BME280;39187;48.476;8.310;2023-06-10T10:27:43;91134.50;;;22.24;46.85
53300;BME280;39187;48.476;8.310;2023-06-10T10:30:11;91133.22;;;22.78;46.63
53300;BME280;39187;48.476;8.310;2023-06-10T10:35:20;91132.00;;;22.09;44.65
53300;BME280;39187;48.476;8.310;2023-06-10T10:37:52;91132.06;;;21.78;42.12
53300;BME280;39187;48.476;8.310;2023-06-10T10:40:19;91167.31;;;21.41;45.55
53300;BME280;39187;48.476;8.310;2023-06-10T10:42:47;91135.84;;;21.12;46.87
53300;BME280;39187;48.476;8.310;2023-06-10T10:45:13;91133.72;;;21.64;47.49
53300;BME280;39187;48.476;8.310;2023-06-10T10:47:39;91142.00;;;21.92;47.00
53300;BME280;39187;48.476;8.310;2023-06-10T10:50:14;91136.44;;;22.12;47.19
53300;BME280;39187;48.476;8.310;2023-06-10T10:53:06;91143.09;;;22.11;48.72
53300;BME280;39187;48.476;8.310;2023-06-10T10:55:32;91139.88;;;22.07;48.61
53300;BME280;39187;48.476;8.310;2023-06-10T10:58:07;91144.56;;;22.07;47.57
53300;BME280;39187;48.476;8.310;2023-06-10T11:00:44;91140.00;;;21.87;47.93
53300;BME280;39187;48.476;8.310;2023-06-10T11:03:14;91150.81;;;21.81;48.28
53300;BME280;39187;48.476;8.310;2023-06-10T11:05:43;91130.84;;;21.79;48.44
53300;BME280;39187;48.476;8.310;2023-06-10T11:11:27;91142.00;;;21.92;48.80
53300;BME280;39187;48.476;8.310;2023-06-10T11:16:28;91145.09;;;21.68;49.22
53300;BME280;39187;48.476;8.310;2023-06-10T11:18:55;91149.56;;;21.40;49.78
53300;BME280;39187;48.476;8.310;2023-06-10T11:21:23;91153.06;;;21.46;47.61
53300;BME280;39187;48.476;8.310;2023-06-10T11:23:50;91151.41;;;20.91;48.89
53300;BME280;39187;48.476;8.310;2023-06-10T11:28:42;91137.91;;;20.97;48.56
53300;BME280;39187;48.476;8.310;2023-06-10T11:33:54;91136.75;;;21.35;49.25
53300;BME280;39187;48.476;8.310;2023-06-10T11:36:21;91120.31;;;21.12;49.17
53300;BME280;39187;48.476;8.310;2023-06-10T11:38:48;91137.88;;;21.59;49.50
53300;BME280;39187;48.476;8.310;2023-06-10T11:41:14;91136.41;;;21.22;48.11
53300;BME280;39187;48.476;8.310;2023-06-10T11:43:46;91140.16;;;21.30;48.13
53300;BME280;39187;48.476;8.310;2023-06-10T11:46:13;91130.66;;;21.14;48.63
53300;BME280;39187;48.476;8.310;2023-06-10T11:48:39;91127.44;;;21.41;49.08
53300;BME280;39187;48.476;8.310;2023-06-10T11:51:13;91142.59;;;21.28;49.64
53300;BME280;39187;48.476;8.310;2023-06-10T11:53:39;91125.16;;;21.29;49.71
53300;BME280;39187;48.476;8.310;2023-06-10T11:56:04;91130.34;;;21.75;50.59
53300;BME280;39187;48.476;8.310;2023-06-10T11:58:30;91127.41;;;21.36;48.83
53300;BME280;39187;48.476;8.310;2023-06-10T12:00:56;91147.31;;;21.33;49.93
53300;BME280;39187;48.476;8.310;2023-06-10T12:03:23;91129.13;;;21.39;46.74
53300;BME280;39187;48.476;8.310;2023-06-10T12:05:56;91138.84;;;21.19;47.67
53300;BME280;39187;48.476;8.310;2023-06-10T12:08:22;91138.38;;;21.58;48.86
53300;BME280;39187;48.476;8.310;2023-06-10T12:10:48;91122.84;;;21.58;49.90
53300;BME280;39187;48.476;8.310;2023-06-10T12:13:14;91131.22;;;21.18;51.24
53300;BME280;39187;48.476;8.310;2023-06-10T12:15:39;91136.06;;;21.14;50.54
53300;BME280;39187;48.476;8.310;2023-06-10T12:18:05;91126.88;;;21.32;48.58
53300;BME280;39187;48.476;8.310;2023-06-10T12:20:32;91127.59;;;21.27;49.56
53300;BME280;39187;48.476;8.310;2023-06-10T12:23:09;91128.47;;;21.49;49.07
53300;BME280;39187;48.476;8.310;2023-06-10T12:25:34;91130.13;;;21.36;48.53
53300;BME280;39187;48.476;8.310;2023-06-10T12:28:02;91137.34;;;21.50;48.30
53300;BME280;39187;48.476;8.310;2023-06-10T12:30:28;91115.00;;;21.18;49.09
53300;BME280;39187;48.476;8.310;2023-06-10T12:32:55;91116.44;;;21.50;49.97
53300;BME280;39187;48.476;8.310;2023-06-10T12:35:27;91120.44;;;21.66;48.39
53300;BME280;39187;48.476;8.310;2023-06-10T12:38:02;91121.19;;;21.24;48.95
53300;BME280;39187;48.476;8.310;2023-06-10T12:40:31;91117.38;;;21.47;47.47
53300;BME280;39187;48.476;8.310;2023-06-10T12:42:57;91120.41;;;21.60;48.79
53300;BME280;39187;48.476;8.310;2023-06-10T12:45:34;91116.78;;;21.69;47.77
53300;BME280;39187;48.476;8.310;2023-06-10T12:48:10;91126.91;;;21.80;49.84
53300;BME280;39187;48.476;8.310;2023-06-10T12:50:37;91124.50;;;21.87;49.91
53300;BME280;39187;48.476;8.310;2023-06-10T12:53:04;91108.91;;;21.77;48.67
53300;BME280;39187;48.476;8.310;2023-06-10T12:55:31;91102.50;;;21.69;44.54
53300;BME280;39187;48.476;8.310;2023-06-10T12:57:58;91114.13;;;21.80;49.49
53300;BME280;39187;48.476;8.310;2023-06-10T13:00:23;91127.53;;;22.01;50.54
53300;BME280;39187;48.476;8.310;2023-06-10T13:02:55;91121.84;;;21.98;49.35
53300;BME280;39187;48.476;8.310;2023-06-10T13:05:21;91125.41;;;21.73;49.31
53300;BME280;39187;48.476;8.310;2023-06-10T13:07:47;91128.41;;;21.38;50.59
53300;BME280;39187;48.476;8.310;2023-06-10T13:10:16;91115.59;;;21.07;49.76
53300;BME280;39187;48.476;8.310;2023-06-10T13:12:43;91123.44;;;21.31;49.23
53300;BME280;39187;48.476;8.310;2023-06-10T13:15:09;91101.47;;;21.60;48.47